Venta Maersk — OWHH2 — position and weather

sailwx.info

Track history (hours):
 
Tides and Currents Weather Stations Pressure Air Temp Water Temp Dewpoint Dewpoint Depression Visibility Wind Speed Wind Dir Waves Ship Positions

Venta Maersk

Last reported at 2020-Jul-11 11:00 UTC. Time now 2020-Jul-11 13:47 UTC.
Position N 54°37' E 012°22'.

Length 200 m; draft 8.6 m.

Type: Ship (hazmat cat A). MMSI: 219115000.

Date/timePositionNaut miles runAvg speedWind from/ knotsBaromVisibWave heightAir tempDewpointWater temp
2020-Jul-11 11:00N 54°37' E 012°22'2612.8
2020-Jul-11 09:00N 54°26' E 011°42'1615.7
2020-Jul-11 08:00N 54°33' E 011°18'7913.7
2020-Jul-11 02:13N 55°50' E 010°50'9213.7
2020-Jul-10 19:31N 57°20' E 011°32'816.0
2020-Jul-10 19:01N 57°27' E 011°27'4414.6
2020-Jul-10 16:01N 57°48' E 010°15'1615.6
2020-Jul-10 15:00N 57°47' E 009°46'2315.6
2020-Jul-10 13:31N 57°35' E 009°09'2415.7
2020-Jul-10 12:00N 57°20' E 008°34'1615.8
2020-Jul-10 11:00N 57°09' E 008°14'33715.8
2020-Jul-09 13:43N 52°27' E 002°57'1915.7
2020-Jul-09 12:31N 52°11' E 002°41'815.3
2020-Jul-09 12:00N 52°05' E 002°32'715.2
2020-Jul-09 11:30N 51°60' E 002°23'1515.1
2020-Jul-09 10:31N 51°51' E 002°03'1912.7
2020-Jul-09 09:01N 51°56' E 001°33'714.8
2020-Jul-09 08:30N 51°56' E 001°21'3 2.1
2020-Jul-09 06:55N 51°58' E 001°17'0 0.0
2020-Jul-09 05:55N 51°58' E 001°17'0 0.0
2020-Jul-09 02:55N 51°58' E 001°17'0 0.0
2020-Jul-08 21:55N 51°58' E 001°17'0 0.0
2020-Jul-08 20:25N 51°58' E 001°17'0 0.0
2020-Jul-08 17:25N 51°58' E 001°17'0 0.0
2020-Jul-08 16:55N 51°58' E 001°17'0 0.0
2020-Jul-08 15:25N 51°58' E 001°17'0 0.0
2020-Jul-08 13:55N 51°58' E 001°17'0 0.0
2020-Jul-08 13:25N 51°58' E 001°17'0 0.0
2020-Jul-08 12:55N 51°58' E 001°17'0 0.0
2020-Jul-08 12:25N 51°58' E 001°17'0 0.0
2020-Jul-08 10:55N 51°58' E 001°17'0 0.0
2020-Jul-08 05:25N 51°58' E 001°17'0 0.0
2020-Jul-08 02:55N 51°58' E 001°17'0 0.0
2020-Jul-07 22:55N 51°58' E 001°17'0 0.0
2020-Jul-07 21:55N 51°58' E 001°17'0 0.1
2020-Jul-07 20:30N 51°58' E 001°17'18 8.9
2020-Jul-07 18:30N 51°51' E 001°44'21 8.4
2020-Jul-07 16:01N 51°54' E 002°18'8 8.3
2020-Jul-07 15:01N 51°55' E 002°31'8 7.7
2020-Jul-07 14:01N 51°59' E 002°41'12 8.4
2020-Jul-07 12:38N 52°08' E 002°54'11 9.6
2020-Jul-07 11:27N 52°17' E 003°05'510.5
2020-Jul-07 10:57N 52°21' E 003°10'104 9.5
2020-Jul-07 00:00N 53°36' E 005°11'15 9.7
2020-Jul-06 22:31N 53°40' E 005°34'46 8.9
2020-Jul-06 17:24N 53°53' E 006°48'4 9.2
2020-Jul-06 17:00N 53°54' E 006°54'46 9.2
2020-Jul-06 12:01N 53°46' E 008°11'1413.6
2020-Jul-06 11:00N 53°37' E 008°28'2 2.4
2020-Jul-06 10:00N 53°36' E 008°31'0 0.0
2020-Jul-06 09:30N 53°36' E 008°31'0 0.0
2020-Jul-06 08:30N 53°36' E 008°31'0 0.0
2020-Jul-06 08:00N 53°36' E 008°31'0 0.0
2020-Jul-06 04:30N 53°36' E 008°31'0 0.0
2020-Jul-06 03:00N 53°36' E 008°31'0 0.0
2020-Jul-06 02:30N 53°36' E 008°31'0 0.0
2020-Jul-06 01:30N 53°36' E 008°31'0 0.0
2020-Jul-05 22:00N 53°36' E 008°31'0 0.0
2020-Jul-05 20:00N 53°36' E 008°31'0 0.0
2020-Jul-05 16:00N 53°36' E 008°31'0 0.0
2020-Jul-05 15:30N 53°36' E 008°31'0 0.0
2020-Jul-05 12:30N 53°36' E 008°31'16 8.0
2020-Jul-05 10:30N 53°46' E 008°11'29 5.7
2020-Jul-05 05:29N 54°04' E 007°32'17015.4
2020-Jul-04 18:27N 56°54' E 007°46'9115.2
2020-Jul-04 12:30N 57°50' E 009°58'1515.5
2020-Jul-04 11:30N 57°51' E 010°27'10712.6
2020-Jul-04 03:00N 56°06' E 011°10'1918.3
2020-Jul-04 01:59N 55°51' E 010°51'7015.6
2020-Jul-03 21:30N 54°41' E 010°46'612.9
2020-Jul-03 21:01N 54°38' E 010°56'4514.9
2020-Jul-03 17:58N 54°29' E 012°13'2615.6
2020-Jul-03 16:18N 54°47' E 012°45'16416.3
2020-Jul-03 06:16N 54°56' E 017°29'3716.4
2020-Jul-03 04:00N 54°57' E 018°34'1616.3
2020-Jul-03 03:01N 54°47' E 018°57'816.6
2020-Jul-03 02:30N 54°41' E 019°05'22 3.6
2020-Jul-02 20:30N 54°23' E 018°43'0 0.0
2020-Jul-02 19:30N 54°23' E 018°43'0 0.0
2020-Jul-02 18:30N 54°23' E 018°43'0 0.0
2020-Jul-02 16:00N 54°23' E 018°43'0 0.0
2020-Jul-02 14:30N 54°23' E 018°43'0 0.0
2020-Jul-02 11:30N 54°23' E 018°43'0 0.0
2020-Jul-02 11:00N 54°23' E 018°43'0 0.0
2020-Jul-02 10:30N 54°23' E 018°43'0 0.0
2020-Jul-02 09:30N 54°23' E 018°43'0 0.0
2020-Jul-02 09:00N 54°23' E 018°43'0 0.0
2020-Jul-02 06:30N 54°23' E 018°43'0 0.0
2020-Jul-02 04:00N 54°23' E 018°43'0 0.0
2020-Jul-02 03:30N 54°23' E 018°43'0 0.0
2020-Jul-02 02:30N 54°23' E 018°43'0 0.0
2020-Jul-02 01:30N 54°23' E 018°43'0 0.0
2020-Jul-01 23:30N 54°23' E 018°43'37 7.4
2020-Jul-01 18:30N 54°59' E 019°02'24 8.8
2020-Jul-01 15:44N 55°23' E 019°02'  
Track history (hours):
 
Tides and Currents Weather Stations Pressure Air Temp Water Temp Dewpoint Dewpoint Depression Visibility Wind Speed Wind Dir Waves Ship Positions

Venta Maersk

Last reported at 2020-Jul-11 11:00 UTC. Time now 2020-Jul-11 13:47 UTC.
Position N 54°37' E 012°22'.

Length 200 m; draft 8.6 m.

Type: Ship (hazmat cat A). MMSI: 219115000.

Date/timePositionNaut miles runAvg speedWind from/ knotsBaromVisibWave heightAir tempDewpointWater temp
2020-Jul-11 11:00N 54°37' E 012°22'2612.8
2020-Jul-11 09:00N 54°26' E 011°42'1615.7
2020-Jul-11 08:00N 54°33' E 011°18'7913.7
2020-Jul-11 02:13N 55°50' E 010°50'9213.7
2020-Jul-10 19:31N 57°20' E 011°32'816.0
2020-Jul-10 19:01N 57°27' E 011°27'4414.6
2020-Jul-10 16:01N 57°48' E 010°15'1615.6
2020-Jul-10 15:00N 57°47' E 009°46'2315.6
2020-Jul-10 13:31N 57°35' E 009°09'2415.7
2020-Jul-10 12:00N 57°20' E 008°34'1615.8
2020-Jul-10 11:00N 57°09' E 008°14'33715.8
2020-Jul-09 13:43N 52°27' E 002°57'1915.7
2020-Jul-09 12:31N 52°11' E 002°41'815.3
2020-Jul-09 12:00N 52°05' E 002°32'715.2
2020-Jul-09 11:30N 51°60' E 002°23'1515.1
2020-Jul-09 10:31N 51°51' E 002°03'1912.7
2020-Jul-09 09:01N 51°56' E 001°33'714.8
2020-Jul-09 08:30N 51°56' E 001°21'3 2.1
2020-Jul-09 06:55N 51°58' E 001°17'0 0.0
2020-Jul-09 05:55N 51°58' E 001°17'0 0.0
2020-Jul-09 02:55N 51°58' E 001°17'0 0.0
2020-Jul-08 21:55N 51°58' E 001°17'0 0.0
2020-Jul-08 20:25N 51°58' E 001°17'0 0.0
2020-Jul-08 17:25N 51°58' E 001°17'0 0.0
2020-Jul-08 16:55N 51°58' E 001°17'0 0.0
2020-Jul-08 15:25N 51°58' E 001°17'0 0.0
2020-Jul-08 13:55N 51°58' E 001°17'0 0.0
2020-Jul-08 13:25N 51°58' E 001°17'0 0.0
2020-Jul-08 12:55N 51°58' E 001°17'0 0.0
2020-Jul-08 12:25N 51°58' E 001°17'0 0.0
2020-Jul-08 10:55N 51°58' E 001°17'0 0.0
2020-Jul-08 05:25N 51°58' E 001°17'0 0.0
2020-Jul-08 02:55N 51°58' E 001°17'0 0.0
2020-Jul-07 22:55N 51°58' E 001°17'0 0.0
2020-Jul-07 21:55N 51°58' E 001°17'0 0.1
2020-Jul-07 20:30N 51°58' E 001°17'18 8.9
2020-Jul-07 18:30N 51°51' E 001°44'21 8.4
2020-Jul-07 16:01N 51°54' E 002°18'8 8.3
2020-Jul-07 15:01N 51°55' E 002°31'8 7.7
2020-Jul-07 14:01N 51°59' E 002°41'12 8.4
2020-Jul-07 12:38N 52°08' E 002°54'11 9.6
2020-Jul-07 11:27N 52°17' E 003°05'510.5
2020-Jul-07 10:57N 52°21' E 003°10'104 9.5
2020-Jul-07 00:00N 53°36' E 005°11'15 9.7
2020-Jul-06 22:31N 53°40' E 005°34'46 8.9
2020-Jul-06 17:24N 53°53' E 006°48'4 9.2
2020-Jul-06 17:00N 53°54' E 006°54'46 9.2
2020-Jul-06 12:01N 53°46' E 008°11'1413.6
2020-Jul-06 11:00N 53°37' E 008°28'2 2.4
2020-Jul-06 10:00N 53°36' E 008°31'0 0.0
2020-Jul-06 09:30N 53°36' E 008°31'0 0.0
2020-Jul-06 08:30N 53°36' E 008°31'0 0.0
2020-Jul-06 08:00N 53°36' E 008°31'0 0.0
2020-Jul-06 04:30N 53°36' E 008°31'0 0.0
2020-Jul-06 03:00N 53°36' E 008°31'0 0.0
2020-Jul-06 02:30N 53°36' E 008°31'0 0.0
2020-Jul-06 01:30N 53°36' E 008°31'0 0.0
2020-Jul-05 22:00N 53°36' E 008°31'0 0.0
2020-Jul-05 20:00N 53°36' E 008°31'0 0.0
2020-Jul-05 16:00N 53°36' E 008°31'0 0.0
2020-Jul-05 15:30N 53°36' E 008°31'0 0.0
2020-Jul-05 12:30N 53°36' E 008°31'16 8.0
2020-Jul-05 10:30N 53°46' E 008°11'29 5.7
2020-Jul-05 05:29N 54°04' E 007°32'17015.4
2020-Jul-04 18:27N 56°54' E 007°46'9115.2
2020-Jul-04 12:30N 57°50' E 009°58'1515.5
2020-Jul-04 11:30N 57°51' E 010°27'10712.6
2020-Jul-04 03:00N 56°06' E 011°10'1918.3
2020-Jul-04 01:59N 55°51' E 010°51'7015.6
2020-Jul-03 21:30N 54°41' E 010°46'612.9
2020-Jul-03 21:01N 54°38' E 010°56'4514.9
2020-Jul-03 17:58N 54°29' E 012°13'2615.6
2020-Jul-03 16:18N 54°47' E 012°45'16416.3
2020-Jul-03 06:16N 54°56' E 017°29'3716.4
2020-Jul-03 04:00N 54°57' E 018°34'1616.3
2020-Jul-03 03:01N 54°47' E 018°57'816.6
2020-Jul-03 02:30N 54°41' E 019°05'22 3.6
2020-Jul-02 20:30N 54°23' E 018°43'0 0.0
2020-Jul-02 19:30N 54°23' E 018°43'0 0.0
2020-Jul-02 18:30N 54°23' E 018°43'0 0.0
2020-Jul-02 16:00N 54°23' E 018°43'0 0.0
2020-Jul-02 14:30N 54°23' E 018°43'0 0.0
2020-Jul-02 11:30N 54°23' E 018°43'0 0.0
2020-Jul-02 11:00N 54°23' E 018°43'0 0.0
2020-Jul-02 10:30N 54°23' E 018°43'0 0.0
2020-Jul-02 09:30N 54°23' E 018°43'0 0.0
2020-Jul-02 09:00N 54°23' E 018°43'0 0.0
2020-Jul-02 06:30N 54°23' E 018°43'0 0.0
2020-Jul-02 04:00N 54°23' E 018°43'0 0.0
2020-Jul-02 03:30N 54°23' E 018°43'0 0.0
2020-Jul-02 02:30N 54°23' E 018°43'0 0.0
2020-Jul-02 01:30N 54°23' E 018°43'0 0.0
2020-Jul-01 23:30N 54°23' E 018°43'37 7.4
2020-Jul-01 18:30N 54°59' E 019°02'24 8.8
2020-Jul-01 15:44N 55°23' E 019°02'  

Dump ship's entire track history